• Join FlightAware (Why Join?)
  • Login
  • US Flag 
08:18AM EDT


 

Airport Tracker/Info


-or-


 

Live Flight TrackerFlight Track Log ✈ AWE1766 ✈ 19-Dec-2013 ✈ KBUF - KCLT

Flight Track Log - Related Links

Times and Time Zones

All times are in EST time to prevent confusion due to time zone crossing. See the AWE1766 flight status page for this flight to view local times or setup timezone preferences in your user account.

Time Position Orientation Groundspeed Altitude Reporting Facility
EST Latitude Longitude Course Direction KTS MPH feet Rate Location/Type
12:00PM 42.9261 -78.7489 213° Southwest 150 173 2,200  Level Cleveland Center
12:00PM 42.9167 -78.7667 234° Southwest 145 167 3,100 2,400 Climbing Buffalo TRACON
12:02PM 42.6426 -78.8261 198° South  Level Estimated
12:02PM 42.8192 -78.8164 201° Southwest 239 275 7,200  Level Cleveland Center
12:03PM 42.5433 -78.8577 216° Southwest  Level Estimated
12:03PM 42.7467 -78.8508 199° South 260 299 10,200  Level Cleveland Center
12:04PM 42.4440 -78.8893 202° Southwest  Level Estimated
12:04PM 42.6664 -78.8906 200° South 309 356 11,800  Level Cleveland Center
12:05PM 42.3584 -78.9642 213° Southwest  Level FlightAware Approximate
12:05PM 42.5753 -78.9339 199° South 345 397 14,500  Level Cleveland Center
12:06PM 42.4892 -78.9886 205° Southwest 344 396 17,300 2,460 Climbing Cleveland Center
12:07PM 42.4089 -79.0475 208° Southwest 342 394 19,700 2,160 Climbing Cleveland Center
12:08PM 42.3222 -79.1092 208° Southwest 354 407 21,800 2,040 Climbing Cleveland Center
12:09PM 42.2150 -79.1856 208° Southwest 370 426 24,000 1,860 Climbing Cleveland Center
12:10PM 42.1222 -79.2525 208° Southwest 380 437 25,700 1,560 Climbing Cleveland Center
12:11PM 42.0272 -79.3194 208° Southwest 387 445 27,300 1,200 Climbing Cleveland Center
12:12PM 41.9300 -79.3872 207° Southwest 396 456 28,300 1,200 Climbing Cleveland Center
12:13PM 41.8433 -79.4803 219° Southwest 399 459 29,800 1,500 Climbing Cleveland Center
12:14PM 41.7408 -79.5892 218° Southwest 395 455 31,500 1,380 Climbing Cleveland Center
12:15PM 41.6469 -79.6742 214° Southwest 412 474 32,700 720 Climbing Cleveland Center
12:16PM 41.5439 -79.7411 206° Southwest 414 476 33,000 240 Climbing Cleveland Center
12:17PM 41.4394 -79.8097 206° Southwest 419 482 33,200 720 Climbing Cleveland Center
12:18PM 41.3372 -79.8789 207° Southwest 418 481 34,600 840 Climbing Cleveland Center
12:19PM 41.2150 -79.9583 206° Southwest 411 473 35,000 180 Climbing Cleveland Center
12:20PM 41.1172 -80.0239 207° Southwest 410 472 35,000 240 Level Cleveland Center
12:21PM 41.0142 -80.0917 206° Southwest 415 478 35,500 720 Climbing Cleveland Center
12:22PM 40.9119 -80.1597 207° Southwest 416 479 36,600 960 Climbing Cleveland Center
12:23PM 40.8081 -80.2264 206° Southwest 409 471 37,500 660 Climbing Cleveland Center
12:24PM 40.6861 -80.3064 206° Southwest 412 474 38,000 240 Climbing Cleveland Center
12:25PM 40.5875 -80.3700 206° Southwest 410 472 38,000  Level Cleveland Center
12:26PM 40.4878 -80.4353 206° Southwest 407 468 38,000  Level Cleveland Center
12:28PM 40.3872 -80.4992 206° Southwest 409 471 38,000  Level Cleveland Center
12:29PM 40.2867 -80.5653 207° Southwest 408 470 38,000  Level Cleveland Center
12:30PM 40.1639 -80.6444 206° Southwest 412 474 38,000  Level Cleveland Center
12:31PM 40.0625 -80.7094 206° Southwest 409 471 38,000  Level Cleveland Center
12:32PM 39.9581 -80.7744 206° Southwest 417 480 38,000  Level Cleveland Center
12:33PM 39.8544 -80.8406 206° Southwest 416 479 38,000  Level Cleveland Center
12:34PM 39.7508 -80.9061 206° Southwest 417 480 38,000  Level Cleveland Center
12:35PM 39.6275 -80.9839 206° Southwest 413 475 38,000  Level Cleveland Center
12:36PM 39.5194 -81.0350 200° South 417 480 38,000  Level Cleveland Center
12:37PM 39.4058 -81.0783 196° South 426 490 38,000  Level Cleveland Center
12:38PM 39.2919 -81.1194 196° South 424 488 38,000  Level Cleveland Center
12:39PM 39.1625 -81.1653 195° South 424 488 38,000  Level Cleveland Center
12:40PM 39.0489 -81.2078 196° South 425 489 38,000  Level Cleveland Center
12:41PM 38.9347 -81.2492 196° South 425 489 38,000  Level Cleveland Center
12:42PM 38.8206 -81.2897 195° South 425 489 38,000  Level Cleveland Center
12:43PM 38.7075 -81.3311 196° South 422 486 38,000  Level Cleveland Center
12:44PM 38.5947 -81.3719 196° South 421 484 38,000  Level Cleveland Center
12:45PM 38.4581 -81.4225 196° South 426 490 38,000 -480 Level Cleveland Center
12:46PM 38.3450 -81.4625 196° South 421 484 37,100 -960 Descending Cleveland Center
12:47PM 38.2306 -81.5033 196° South 426 490 36,100 -780 Descending Cleveland Center
12:49PM 38.0717 -81.5619 196° South 430 495 35,200 -840 Descending Indianapolis Center
12:50PM 37.9550 -81.6028 195° South 434 499 34,100 -900 Descending Indianapolis Center
12:51PM 37.8156 -81.6511 195° South 437 503 33,400 -840 Descending Indianapolis Center
12:52PM 37.6997 -81.6928 196° South 433 498 32,400 -1,020 Descending Indianapolis Center
12:53PM 37.5831 -81.7333 195° South 434 499 31,400 -1,020 Descending Indianapolis Center
12:54PM 37.4642 -81.7758 196° South 440 506 30,400 -1,020 Descending Indianapolis Center
12:55PM 37.3444 -81.8164 195° South 442 509 29,400 -1,020 Descending Indianapolis Center
12:56PM 37.2264 -81.8569 195° South 439 505 28,400 -720 Descending Indianapolis Center
12:57PM 37.0939 -81.9036 196° South 425 489 28,000 -240 Descending Indianapolis Center
12:58PM 36.9792 -81.9436 196° South 425 489 28,000 -180 Level Indianapolis Center
12:59PM 36.8633 -81.9844 196° South 428 493 27,700 -480 Descending Indianapolis Center
01:00PM 36.7589 -82.0125 192° South 425 489 27,100 -660 Descending Atlanta Center
01:01PM 36.6397 -81.9844 169° South 438 504 26,500 -840 Descending Atlanta Center
01:02PM 36.5286 -81.9589 170° South 426 490 25,500 -1,140 Descending Atlanta Center
01:03PM 36.4156 -81.9336 170° South 414 476 24,300 -1,140 Descending Atlanta Center
01:04PM 36.3067 -81.9106 170° South 409 471 23,300 -2,100 Descending Atlanta Center
01:05PM 36.1994 -81.8619 160° South 403 464 20,100 -2,520 Descending Atlanta Center
01:06PM 36.1006 -81.8133 158° South 398 458 18,300 -1,620 Descending Atlanta Center
01:07PM 36.0039 -81.7722 161° South 386 444 16,900 -1,500 Descending Atlanta Center
01:08PM 35.9072 -81.7264 159° South 375 432 15,300 -1,560 Descending Atlanta Center
01:09PM 35.8147 -81.6853 160° South 370 426 13,800 -1,560 Descending Atlanta Center
01:10PM 35.7367 -81.6467 158° South 343 395 12,400 -1,620 Descending Atlanta Center
01:10PM 35.7261 -81.6444 170° South 355 409 12,200 -1,140 Descending Atlanta Center
01:11PM 35.6461 -81.6083 160° South 326 375 11,300 -1,020 Descending Atlanta Center
01:11PM 35.6419 -81.6033 136° Southeast 341 392 11,200 -300 Descending Atlanta Center
01:12PM 35.5761 -81.5417 143° Southeast 300 345 11,000 -420 Descending Atlanta Center
01:13PM 35.5511 -81.4531 109° East 319 367 10,500 -600 Descending Atlanta Center
01:13PM 35.5511 -81.4453 90° East 280 322 10,400 -660 Descending Atlanta Center
01:14PM 35.5508 -81.3433 90° East 280 322 9,800 -600 Descending Atlanta Center
01:14PM 35.5508 -81.3408 90° East 292 336 9,800 -960 Level Atlanta Center
01:15PM 35.5508 -81.2464 90° East 250 288 8,800 -960 Descending Atlanta Center
01:16PM 35.5556 -81.1772 85° East 268 308 8,000 -900 Descending Atlanta Center
01:16PM 35.5594 -81.1642 70° East 238 274 7,900 -1,020 Descending Atlanta Center
01:17PM 35.5642 -81.0978 85° East 253 291 7,000 -1,140 Descending Atlanta Center
01:17PM 35.5681 -81.0875 65° Northeast 227 261 6,800 -1,020 Descending Atlanta Center
01:18PM 35.5436 -81.0322 119° Southeast 221 254 6,000 -840 Descending Atlanta Center
01:18PM 35.5372 -81.0222 128° Southeast 209 241 6,000  Level Atlanta Center
01:19PM 35.5011 -80.9953 149° Southeast 194 223 6,000  Level Atlanta Center
01:19PM 35.4864 -80.9933 174° South 175 201 6,000 -840 Level Atlanta Center
01:20PM 35.4383 -80.9900 177° South 175 201 5,100 -960 Descending Atlanta Center
01:21PM 35.3922 -80.9842 174° South 173 199 4,100 -1,020 Descending Atlanta Center
01:22PM 35.3442 -80.9783 174° South 166 191 3,100 -840 Descending Atlanta Center
01:23PM 35.3067 -80.9772 179° South 138 159 2,500 -720 Descending Atlanta Center
01:24PM 35.2689 -80.9733 175° South 117 135 1,700 -780 Descending Atlanta Center
01:25PM 35.2378 -80.9719 178° South 122 140 1,100 -660 Descending Atlanta Center